Time;durP1;ratioP1;P1;durP2;ratioP2;P2;SDS_P1;SDS_P2;PMS_P1;PMS_P2;Temp;Humidity;BMP_temperature;BMP_pressure;BME280_temperature;BME280_humidity;BME280_pressure;Samples;Min_cycle;Max_cycle;Signal;HPM_P1;HPM_P2
2022/06/11 00:01:48;;;;;;;11.70;4.93;;;18.40;99.90;;;;;;4988160;28;20198;-64
2022/06/11 00:04:19;;;;;;;14.32;5.10;;;18.40;99.90;;;;;;5011857;28;20198;-64
2022/06/11 00:06:49;;;;;;;10.35;5.57;;;18.40;99.90;;;;;;4995338;28;20229;-63
2022/06/11 00:09:17;;;;;;;7.90;5.13;;;18.50;99.90;;;;;;4994066;28;20213;-64
2022/06/11 00:11:45;;;;;;;7.60;5.40;;;18.40;99.90;;;;;;5008621;28;20230;-64
2022/06/11 00:14:13;;;;;;;7.97;5.95;;;18.50;99.90;;;;;;4986561;28;20257;-63
2022/06/11 00:16:41;;;;;;;12.80;5.53;;;18.50;99.90;;;;;;5007470;28;20194;-64
2022/06/11 00:19:08;;;;;;;7.05;5.40;;;18.40;99.90;;;;;;4999549;28;20533;-64
2022/06/11 00:21:40;;;;;;;6.40;5.40;;;18.40;99.90;;;;;;5001030;28;20206;-64
2022/06/11 00:24:08;;;;;;;10.50;5.90;;;18.50;99.90;;;;;;4979697;28;20216;-65
2022/06/11 00:26:35;;;;;;;6.78;5.63;;;18.50;99.90;;;;;;5013474;28;20204;-65
2022/06/11 00:29:04;;;;;;;8.60;6.60;;;18.50;99.90;;;;;;4981500;28;21822;-64
2022/06/11 00:31:31;;;;;;;6.43;5.75;;;18.40;99.90;;;;;;5009828;28;20781;-64
2022/06/11 00:33:57;;;;;;;10.80;5.80;;;18.50;99.90;;;;;;4998048;28;20921;-64
2022/06/11 00:36:25;;;;;;;11.43;6.05;;;18.50;99.90;;;;;;4995766;28;20198;-64
2022/06/11 00:38:53;;;;;;;10.02;6.10;;;18.50;99.90;;;;;;5009087;28;20213;-64
2022/06/11 00:41:24;;;;;;;6.97;6.28;;;18.50;99.90;;;;;;4994261;28;20205;-64
2022/06/11 00:43:53;;;;;;;9.38;6.38;;;18.60;99.90;;;;;;5008117;28;20213;-64
2022/06/11 00:46:43;;;;;;;8.18;6.47;;;18.60;99.90;;;;;;4990268;28;20236;-65
2022/06/11 00:49:17;;;;;;;11.02;6.10;;;18.60;99.90;;;;;;4998186;28;20220;-64
2022/06/11 00:51:44;;;;;;;10.70;6.65;;;18.50;99.90;;;;;;5004773;28;20230;-64
2022/06/11 00:54:22;;;;;;;11.27;6.50;;;18.50;99.90;;;;;;4988762;28;20871;-64
2022/06/11 00:56:53;;;;;;;8.05;7.25;;;18.60;99.90;;;;;;4989262;28;20198;-64
2022/06/11 00:59:32;;;;;;;9.02;7.00;;;18.50;99.90;;;;;;5000018;28;20668;-64
2022/06/11 01:01:59;;;;;;;10.20;7.32;;;18.50;99.90;;;;;;4990527;28;20233;-64
2022/06/11 01:04:52;;;;;;;7.93;7.13;;;18.60;99.90;;;;;;4998553;28;20199;-64
2022/06/11 01:07:32;;;;;;;8.70;7.70;;;18.60;99.90;;;;;;4982113;28;20328;-64
2022/06/11 01:10:21;;;;;;;10.00;7.88;;;18.60;99.90;;;;;;5005242;28;20205;-64
2022/06/11 01:12:57;;;;;;;10.95;6.90;;;18.50;99.90;;;;;;4993225;28;20241;-65
2022/06/11 01:15:28;;;;;;;9.63;6.97;;;18.60;99.90;;;;;;4998662;28;20225;-64
2022/06/11 01:18:07;;;;;;;9.75;7.30;;;18.50;99.90;;;;;;4989459;28;20214;-64
2022/06/11 01:20:41;;;;;;;8.18;6.95;;;18.50;99.90;;;;;;4997666;28;20210;-64
2022/06/11 01:23:43;;;;;;;11.52;6.38;;;18.50;99.90;;;;;;4995670;28;21136;-64
2022/06/11 01:26:46;;;;;;;7.20;6.50;;;18.50;99.90;;;;;;5007478;28;20844;-64
2022/06/11 01:29:39;;;;;;;10.02;5.70;;;18.60;99.90;;;;;;5001911;28;20286;-64
2022/06/11 01:32:13;;;;;;;10.30;5.90;;;18.50;99.90;;;;;;4983355;28;20257;-64
2022/06/11 01:34:48;;;;;;;10.38;6.30;;;18.50;99.90;;;;;;5009242;28;20620;-64
2022/06/11 01:37:23;;;;;;;7.45;5.80;;;18.40;99.90;;;;;;5011761;28;20213;-64
2022/06/11 01:39:56;;;;;;;7.90;5.57;;;18.40;99.90;;;;;;5000661;28;20209;-64
2022/06/11 01:42:27;;;;;;;7.03;5.20;;;18.30;99.90;;;;;;4994376;28;20905;-64
2022/06/11 01:45:06;;;;;;;11.93;6.75;;;18.40;99.90;;;;;;5015657;28;20205;-64
2022/06/11 01:47:34;;;;;;;8.30;6.05;;;17.70;99.90;;;;;;4994537;28;20206;-64
2022/06/11 01:50:01;;;;;;;6.32;5.70;;;18.40;99.90;;;;;;5013991;28;20206;-64
2022/06/11 01:52:54;;;;;;;10.35;5.53;;;18.30;99.90;;;;;;5005896;28;20233;-65
2022/06/11 01:55:31;;;;;;;10.20;5.50;;;18.30;99.90;;;;;;4954080;28;20206;-64
2022/06/11 01:58:15;;;;;;;6.05;5.45;;;18.30;99.90;;;;;;5014223;28;20198;-64
2022/06/11 02:00:50;;;;;;;5.57;5.07;;;18.30;99.90;;;;;;5013269;28;20210;-64
2022/06/11 02:03:27;;;;;;;11.15;5.28;;;18.30;99.90;;;;;;4992989;28;20213;-64
2022/06/11 02:06:24;;;;;;;7.70;4.93;;;18.30;99.90;;;;;;5000848;28;20198;-64
2022/06/11 02:09:03;;;;;;;7.88;5.05;;;18.20;99.90;;;;;;5015066;28;20203;-67
2022/06/11 02:11:35;;;;;;;16.35;4.78;;;18.20;99.90;;;;;;5005546;28;20225;-64
2022/06/11 02:14:07;;;;;;;7.72;4.85;;;18.10;99.90;;;;;;4994485;28;20210;-64
2022/06/11 02:16:39;;;;;;;5.25;4.53;;;18.10;99.90;;;;;;5015738;28;20957;-64
2022/06/11 02:19:10;;;;;;;7.07;4.80;;;18.00;99.90;;;;;;4992778;28;20225;-64
2022/06/11 02:21:41;;;;;;;4.80;4.40;;;17.70;99.90;;;;;;5001732;28;20198;-64
2022/06/11 02:24:13;;;;;;;8.30;4.47;;;17.90;99.90;;;;;;4992851;28;20358;-64
2022/06/11 02:26:43;;;;;;;9.00;4.53;;;17.90;99.90;;;;;;5013529;28;20209;-64
2022/06/11 02:29:12;;;;;;;5.60;4.90;;;17.90;99.90;;;;;;5000482;28;20206;-64
2022/06/11 02:31:43;;;;;;;5.60;4.78;;;17.90;99.90;;;;;;5013874;28;20981;-64
2022/06/11 02:34:11;;;;;;;5.65;5.13;;;16.00;99.90;;;;;;4995712;28;20202;-64
2022/06/11 02:36:47;;;;;;;12.63;5.85;;;18.00;99.90;;;;;;4998664;28;20195;-64
2022/06/11 02:39:15;;;;;;;7.93;6.07;;;17.90;99.90;;;;;;5010959;28;20198;-64
2022/06/11 02:41:43;;;;;;;9.20;6.18;;;18.00;99.90;;;;;;5004847;28;20579;-64
2022/06/11 02:44:10;;;;;;;8.57;6.68;;;17.90;99.90;;;;;;5011594;28;20285;-64
2022/06/11 02:46:43;;;;;;;9.18;7.13;;;17.80;99.90;;;;;;4997740;28;20213;-64
2022/06/11 02:49:19;;;;;;;9.15;7.63;;;17.80;99.90;;;;;;4994084;28;20194;-64
2022/06/11 02:51:48;;;;;;;7.07;6.25;;;17.70;99.90;;;;;;4999198;28;20829;-64
2022/06/11 02:54:15;;;;;;;10.07;6.85;;;17.70;99.90;;;;;;4996162;28;20210;-64
2022/06/11 02:56:43;;;;;;;9.35;7.00;;;17.70;99.90;;;;;;5000244;28;20605;-64
2022/06/11 02:59:10;;;;;;;8.13;6.65;;;17.60;99.90;;;;;;4998942;28;20226;-64
2022/06/11 03:01:37;;;;;;;7.93;7.15;;;17.60;99.90;;;;;;4997051;28;20576;-64
2022/06/11 03:04:06;;;;;;;9.20;6.60;;;17.50;99.90;;;;;;5011050;28;20209;-64
2022/06/11 03:06:34;;;;;;;7.38;6.55;;;17.50;99.90;;;;;;4982984;28;20218;-64
2022/06/11 03:09:01;;;;;;;10.88;7.05;;;17.40;99.90;;;;;;5010366;28;20210;-64
2022/06/11 03:11:29;;;;;;;9.82;6.90;;;17.40;99.90;;;;;;4997854;28;20240;-64
2022/06/11 03:13:56;;;;;;;13.13;7.38;;;17.40;99.90;;;;;;5010501;28;20582;-65
2022/06/11 03:16:23;;;;;;;15.32;8.40;;;17.40;99.90;;;;;;4996340;28;20235;-64
2022/06/11 03:18:50;;;;;;;8.38;7.07;;;17.30;99.90;;;;;;5011819;28;20227;-64
2022/06/11 03:21:19;;;;;;;10.90;8.50;;;17.30;99.90;;;;;;4992783;28;20206;-64
2022/06/11 03:23:46;;;;;;;10.10;9.05;;;17.20;99.90;;;;;;4993168;28;20214;-64
2022/06/11 03:26:13;;;;;;;11.20;8.10;;;17.20;99.90;;;;;;4999817;28;20694;-64
2022/06/11 03:28:40;;;;;;;11.20;8.57;;;17.20;99.90;;;;;;5000938;28;20206;-64
2022/06/11 03:31:07;;;;;;;9.30;8.32;;;17.20;99.90;;;;;;5012352;28;20560;-64
2022/06/11 03:33:35;;;;;;;10.32;8.80;;;17.20;99.90;;;;;;4995483;28;20209;-64
2022/06/11 03:36:06;;;;;;;16.55;8.55;;;17.00;99.90;;;;;;4990606;28;20387;-65
2022/06/11 03:38:34;;;;;;;15.57;8.27;;;17.10;99.90;;;;;;5003647;28;20280;-64
2022/06/11 03:41:01;;;;;;;16.33;8.50;;;17.20;99.90;;;;;;4995488;28;20202;-65
2022/06/11 03:43:28;;;;;;;15.95;8.75;;;17.10;99.90;;;;;;4999860;28;20203;-64
2022/06/11 03:45:55;;;;;;;10.38;7.68;;;17.20;99.90;;;;;;5008868;28;20202;-64
2022/06/11 03:48:23;;;;;;;11.15;7.93;;;17.10;99.90;;;;;;4998600;28;20206;-64
2022/06/11 03:50:50;;;;;;;13.82;7.93;;;17.00;99.90;;;;;;5009995;28;20195;-64
2022/06/11 03:53:17;;;;;;;10.65;7.80;;;16.40;99.90;;;;;;4973857;28;20252;-64
2022/06/11 03:55:45;;;;;;;12.77;7.82;;;17.10;99.90;;;;;;5013574;28;20313;-64
2022/06/11 03:58:13;;;;;;;10.77;7.78;;;18.60;99.90;;;;;;4976064;28;20887;-64
2022/06/11 04:03:26;;;;;;;11.10;8.25;;;17.20;99.90;;;;;;4990088;28;20704;-64
2022/06/11 04:05:55;;;;;;;8.63;7.40;;;17.10;99.90;;;;;;5009874;28;20205;-66
2022/06/11 04:08:23;;;;;;;13.65;7.35;;;17.10;99.90;;;;;;4976974;28;20214;-64
2022/06/11 04:10:52;;;;;;;8.70;6.70;;;17.20;99.90;;;;;;5010027;28;20222;-64
2022/06/11 04:13:20;;;;;;;11.65;7.10;;;17.20;99.90;;;;;;4996647;28;21739;-64
2022/06/11 04:15:47;;;;;;;10.95;6.70;;;18.00;99.90;;;;;;5009501;28;20245;-64
2022/06/11 04:18:23;;;;;;;9.18;6.57;;;17.40;99.90;;;;;;4994586;28;20202;-64
2022/06/11 04:20:50;;;;;;;11.85;6.63;;;17.30;99.90;;;;;;4993950;28;20226;-64
2022/06/11 04:23:17;;;;;;;8.35;5.80;;;17.30;99.90;;;;;;4989525;28;20209;-64
2022/06/11 04:25:45;;;;;;;10.48;6.70;;;17.30;99.90;;;;;;4998373;28;20217;-64
2022/06/11 04:28:13;;;;;;;12.85;6.57;;;17.10;99.90;;;;;;4998205;28;20287;-64
2022/06/11 04:30:40;;;;;;;11.68;6.72;;;15.90;99.90;;;;;;5011151;28;20198;-64
2022/06/11 04:33:07;;;;;;;9.45;6.45;;;17.40;99.90;;;;;;5011737;28;20229;-64
2022/06/11 04:35:34;;;;;;;8.57;7.32;;;17.30;99.90;;;;;;4994217;28;20206;-64
2022/06/11 04:38:01;;;;;;;9.90;7.50;;;17.40;99.90;;;;;;5007542;28;20194;-64
2022/06/11 04:40:28;;;;;;;8.90;6.90;;;17.40;99.90;;;;;;4980265;28;20203;-64
2022/06/11 04:42:55;;;;;;;9.20;6.63;;;17.50;99.90;;;;;;5011100;28;24132;-64
2022/06/11 04:45:23;;;;;;;11.73;6.50;;;16.90;99.90;;;;;;5000313;28;20607;-64
2022/06/11 04:47:50;;;;;;;11.38;6.50;;;17.40;99.90;;;;;;5007539;28;20194;-64
2022/06/11 04:50:18;;;;;;;10.57;6.38;;;17.50;99.90;;;;;;4994647;28;20230;-64
2022/06/11 04:52:46;;;;;;;11.38;6.50;;;17.50;99.90;;;;;;5005567;28;20228;-64
2022/06/11 04:55:14;;;;;;;12.30;7.10;;;17.60;99.90;;;;;;4990433;28;20214;-64
2022/06/11 04:57:41;;;;;;;10.73;6.68;;;17.60;99.90;;;;;;4978744;28;20268;-64
2022/06/11 05:00:09;;;;;;;8.50;6.47;;;17.70;99.90;;;;;;4991091;28;22449;-64
2022/06/11 05:02:38;;;;;;;10.15;6.40;;;17.70;99.90;;;;;;4986360;28;20210;-64
2022/06/11 05:05:06;;;;;;;10.82;7.40;;;17.70;99.90;;;;;;5011424;28;20276;-64
2022/06/11 05:07:34;;;;;;;8.50;7.65;;;17.80;99.90;;;;;;4978375;28;20707;-64
2022/06/11 05:10:01;;;;;;;8.75;7.82;;;17.80;99.90;;;;;;5008361;28;20703;-64
2022/06/11 05:12:28;;;;;;;10.35;7.45;;;17.80;99.90;;;;;;4974173;28;20222;-64
2022/06/11 05:14:54;;;;;;;9.35;8.18;;;17.80;99.90;;;;;;4996671;28;21007;-64
2022/06/11 05:17:22;;;;;;;11.05;7.78;;;17.90;99.90;;;;;;5011759;28;20205;-64
2022/06/11 05:19:50;;;;;;;15.80;7.55;;;17.80;99.90;;;;;;4990620;28;20233;-64
2022/06/11 05:22:17;;;;;;;12.98;8.00;;;18.00;99.90;;;;;;4986155;28;20229;-64
2022/06/11 05:24:44;;;;;;;11.18;8.07;;;17.90;99.90;;;;;;5000792;28;25630;-64
2022/06/11 05:27:15;;;;;;;12.82;8.05;;;17.90;99.90;;;;;;4973618;28;20222;-64
2022/06/11 05:29:48;;;;;;;11.02;8.82;;;18.00;99.90;;;;;;5006045;28;20218;-64
2022/06/11 05:32:16;;;;;;;12.93;8.68;;;18.00;99.90;;;;;;4996017;28;20315;-64
2022/06/11 05:34:43;;;;;;;10.90;8.73;;;18.10;99.90;;;;;;5001282;28;20206;-64
2022/06/11 05:37:13;;;;;;;13.35;9.50;;;18.10;99.90;;;;;;4980952;28;20230;-64
2022/06/11 05:39:41;;;;;;;13.55;10.60;;;18.10;99.90;;;;;;5002966;28;20213;-64
2022/06/11 05:42:08;;;;;;;13.45;10.00;;;18.10;99.90;;;;;;4973594;28;20206;-64
2022/06/11 05:44:35;;;;;;;13.20;10.65;;;18.10;99.90;;;;;;5001253;28;20198;-64
2022/06/11 05:47:02;;;;;;;12.55;11.25;;;18.20;99.90;;;;;;4999056;28;20209;-64
2022/06/11 05:49:35;;;;;;;16.98;10.65;;;18.20;99.90;;;;;;4994573;28;21620;-64
2022/06/11 05:52:08;;;;;;;12.32;9.80;;;18.20;99.90;;;;;;5006861;28;20200;-64
2022/06/11 05:54:37;;;;;;;17.10;10.45;;;18.20;99.90;;;;;;4998632;28;20203;-64
2022/06/11 05:57:05;;;;;;;12.95;10.15;;;18.30;99.90;;;;;;4988174;28;20294;-64
2022/06/11 05:59:36;;;;;;;12.13;9.50;;;18.30;99.90;;;;;;4993095;28;20226;-64
2022/06/11 06:02:08;;;;;;;13.07;10.73;;;18.30;99.90;;;;;;4964180;28;20229;-64
2022/06/11 06:04:35;;;;;;;16.98;10.75;;;18.40;99.90;;;;;;4993732;28;20568;-65
2022/06/11 06:07:02;;;;;;;12.65;10.73;;;18.40;99.90;;;;;;4983105;28;20221;-64
2022/06/11 06:09:29;;;;;;;16.27;10.90;;;18.40;99.90;;;;;;4986792;28;20207;-64
2022/06/11 06:11:58;;;;;;;15.38;10.75;;;18.30;99.90;;;;;;4982690;28;20222;-64
2022/06/11 06:14:25;;;;;;;11.95;9.40;;;18.30;99.90;;;;;;4988362;28;20207;-64
2022/06/11 06:16:52;;;;;;;11.65;10.00;;;18.30;99.90;;;;;;4981491;28;20230;-64
2022/06/11 06:19:19;;;;;;;12.32;8.80;;;18.40;99.90;;;;;;4998413;28;20237;-63
2022/06/11 06:21:46;;;;;;;15.32;8.55;;;18.30;99.90;;;;;;4984910;28;20625;-64
2022/06/11 06:24:12;;;;;;;11.85;8.32;;;18.30;99.90;;;;;;4978333;28;20252;-64
2022/06/11 06:26:40;;;;;;;11.45;8.02;;;;;;;;;;4980900;28;20218;-64
2022/06/11 06:29:08;;;;;;;10.85;7.80;;;18.30;99.90;;;;;;4993512;28;20217;-64
2022/06/11 06:31:35;;;;;;;10.98;7.05;;;18.30;99.90;;;;;;4998854;28;20976;-64
2022/06/11 06:34:02;;;;;;;9.10;5.60;;;18.20;99.90;;;;;;4991529;28;20233;-64
2022/06/11 06:36:30;;;;;;;9.13;5.93;;;18.10;99.90;;;;;;4986533;28;20237;-65
2022/06/11 06:38:57;;;;;;;11.00;5.07;;;18.20;99.90;;;;;;4989803;28;20597;-65
2022/06/11 06:41:24;;;;;;;12.35;5.90;;;18.20;99.90;;;;;;4986185;28;20230;-64
2022/06/11 06:43:51;;;;;;;8.52;4.57;;;17.90;99.90;;;;;;4972622;28;20743;-64
2022/06/11 06:46:20;;;;;;;8.57;4.55;;;18.20;99.90;;;;;;5002021;28;20206;-64
2022/06/11 06:48:47;;;;;;;9.40;4.80;;;18.40;99.90;;;;;;4995482;28;20259;-64
2022/06/11 06:51:14;;;;;;;8.10;4.82;;;18.40;99.90;;;;;;5009104;28;20297;-64
2022/06/11 06:53:44;;;;;;;5.97;3.90;;;18.40;99.90;;;;;;4992821;28;20703;-64
2022/06/11 06:56:11;;;;;;;11.85;4.32;;;18.30;99.90;;;;;;4995534;28;20589;-63
2022/06/11 06:58:38;;;;;;;5.50;3.80;;;18.20;99.90;;;;;;4974341;28;20234;-64
2022/06/11 07:01:05;;;;;;;7.15;3.85;;;18.20;99.90;;;;;;5011123;28;20472;-64
2022/06/11 07:03:33;;;;;;;5.13;3.40;;;18.20;99.90;;;;;;5007572;28;20194;-64
2022/06/11 07:06:03;;;;;;;7.25;3.42;;;17.90;99.90;;;;;;5001642;28;20846;-64
2022/06/11 07:08:30;;;;;;;4.38;3.38;;;17.70;99.90;;;;;;5005246;28;20214;-64
2022/06/11 07:10:57;;;;;;;7.72;3.38;;;14.80;99.90;;;;;;4973087;28;20696;-64
2022/06/11 07:13:25;;;;;;;4.68;3.20;;;17.90;99.90;;;;;;4998691;28;20229;-64
2022/06/11 07:15:55;;;;;;;7.80;3.30;;;18.00;99.90;;;;;;4987543;28;20230;-64
2022/06/11 07:18:26;;;;;;;3.13;2.75;;;18.00;99.90;;;;;;5006334;28;20233;-63
2022/06/11 07:20:56;;;;;;;5.90;3.30;;;18.10;99.90;;;;;;4993236;28;20229;-64
2022/06/11 07:23:27;;;;;;;6.57;3.45;;;18.20;99.90;;;;;;5010228;28;20218;-63
2022/06/11 07:25:59;;;;;;;3.65;2.90;;;18.30;99.90;;;;;;4974234;28;21386;-64
2022/06/11 07:28:30;;;;;;;7.80;3.35;;;18.30;99.90;;;;;;5002559;28;20222;-64
2022/06/11 07:30:57;;;;;;;7.20;3.15;;;18.40;99.90;;;;;;4987124;28;20323;-64
2022/06/11 07:33:26;;;;;;;5.32;3.35;;;18.40;99.90;;;;;;5004389;28;20230;-64
2022/06/11 07:35:55;;;;;;;4.70;3.30;;;18.40;99.90;;;;;;4997504;28;20222;-64
2022/06/11 07:38:22;;;;;;;10.77;3.78;;;18.40;99.90;;;;;;5007413;28;20241;-63
2022/06/11 07:40:50;;;;;;;6.97;3.13;;;18.40;99.90;;;;;;4972208;28;20222;-64
2022/06/11 07:43:17;;;;;;;5.28;2.80;;;18.40;99.90;;;;;;5007452;28;20217;-66
2022/06/11 07:45:46;;;;;;;5.95;2.80;;;18.50;99.90;;;;;;4961764;28;20343;-65
2022/06/11 07:48:14;;;;;;;6.55;3.20;;;18.50;99.90;;;;;;4995544;28;21530;-64
2022/06/11 07:50:44;;;;;;;6.80;3.17;;;18.60;99.90;;;;;;4984442;28;21054;-64
2022/06/11 07:55:58;;;;;;;7.90;3.10;;;18.30;99.90;;;;;;4993257;22;20238;-64
2022/06/11 07:58:27;;;;;;;7.30;3.13;;;18.20;99.90;;;;;;4956340;28;20237;-64
2022/06/11 08:00:54;;;;;;;9.85;3.30;;;18.30;99.90;;;;;;4962118;28;32015;-64
2022/06/11 08:03:22;;;;;;;8.90;2.72;;;18.30;99.90;;;;;;4975959;28;20210;-64
2022/06/11 08:05:49;;;;;;;7.75;2.85;;;18.30;99.90;;;;;;4993807;28;20236;-64
2022/06/11 08:08:18;;;;;;;11.70;3.03;;;18.30;99.90;;;;;;4984821;28;20222;-64
2022/06/11 08:10:46;;;;;;;8.77;2.95;;;18.40;99.90;;;;;;4964020;28;20206;-64
2022/06/11 08:13:14;;;;;;;6.00;3.08;;;18.40;99.90;;;;;;4973854;28;20234;-64
2022/06/11 08:15:44;;;;;;;8.63;3.53;;;18.40;99.90;;;;;;4998032;28;20571;-64
2022/06/11 08:18:10;;;;;;;6.35;2.55;;;18.40;99.90;;;;;;4973886;28;20620;-64
2022/06/11 08:20:38;;;;;;;10.32;3.30;;;18.50;99.90;;;;;;4982908;28;20992;-64
2022/06/11 08:23:06;;;;;;;7.72;2.85;;;20.00;99.90;;;;;;4996277;28;20507;-64
2022/06/11 08:25:34;;;;;;;13.93;3.10;;;18.60;99.90;;;;;;4976081;28;20602;-65
2022/06/11 08:28:01;;;;;;;13.10;3.85;;;18.60;99.90;;;;;;5007525;28;20711;-64
2022/06/11 08:30:31;;;;;;;8.35;2.92;;;18.70;99.90;;;;;;4982404;28;20619;-64
2022/06/11 08:32:57;;;;;;;7.45;2.83;;;18.70;99.90;;;;;;4977000;28;20238;-64
2022/06/11 08:35:27;;;;;;;12.63;3.70;;;18.70;99.90;;;;;;4970078;28;20237;-64
2022/06/11 08:37:54;;;;;;;11.48;2.92;;;18.90;99.90;;;;;;4999262;28;20280;-64
2022/06/11 08:40:26;;;;;;;6.97;2.60;;;18.80;99.90;;;;;;4981649;28;20222;-64
2022/06/11 08:42:59;;;;;;;6.28;2.58;;;18.90;99.90;;;;;;4975926;28;20372;-64
2022/06/11 08:45:34;;;;;;;7.57;3.00;;;18.90;99.90;;;;;;4980060;28;20201;-64
2022/06/11 08:48:06;;;;;;;11.80;3.42;;;18.90;99.90;;;;;;4987710;28;20217;-65
2022/06/11 08:50:39;;;;;;;9.73;3.42;;;19.00;99.90;;;;;;4996539;28;20277;-64
2022/06/11 08:53:07;;;;;;;7.78;3.20;;;19.00;99.90;;;;;;5000689;28;20198;-64
2022/06/11 08:55:37;;;;;;;9.25;2.92;;;19.00;99.90;;;;;;4993340;28;20233;-64
2022/06/11 08:58:14;;;;;;;11.05;3.08;;;19.10;99.90;;;;;;4983121;28;20207;-64
2022/06/11 09:00:48;;;;;;;9.00;3.25;;;19.00;99.90;;;;;;4987077;28;20587;-64
2022/06/11 09:03:27;;;;;;;9.20;2.58;;;18.80;99.90;;;;;;4979876;28;21845;-64
2022/06/11 09:06:24;;;;;;;7.30;2.72;;;19.20;99.90;;;;;;4997043;28;20218;-64
2022/06/11 09:09:00;;;;;;;7.50;2.97;;;19.30;99.90;;;;;;4997361;28;20198;-64
2022/06/11 09:11:43;;;;;;;10.55;2.95;;;19.20;99.90;;;;;;5010463;28;20214;-64
2022/06/11 09:14:35;;;;;;;14.85;3.65;;;19.40;99.90;;;;;;4986118;28;20221;-64
2022/06/11 09:17:23;;;;;;;9.50;2.95;;;19.70;99.90;;;;;;4992875;28;20210;-64
2022/06/11 09:20:03;;;;;;;10.98;3.22;;;19.60;99.90;;;;;;4983025;28;20218;-64
2022/06/11 09:22:45;;;;;;;7.25;3.03;;;19.60;99.90;;;;;;5000064;28;20222;-64
2022/06/11 09:25:24;;;;;;;13.15;3.22;;;19.60;99.90;;;;;;5002128;28;20230;-64
2022/06/11 09:27:55;;;;;;;9.52;3.17;;;19.70;99.90;;;;;;5000766;28;20727;-64
2022/06/11 09:30:28;;;;;;;10.90;3.65;;;19.80;99.90;;;;;;4976689;28;20210;-64
2022/06/11 09:33:04;;;;;;;11.45;3.38;;;19.90;99.90;;;;;;5001022;28;20228;-64
2022/06/11 09:35:36;;;;;;;10.60;2.78;;;20.00;99.90;;;;;;4986317;28;20330;-64
2022/06/11 09:38:12;;;;;;;9.00;2.97;;;20.00;99.90;;;;;;4999846;28;20228;-64
2022/06/11 09:40:42;;;;;;;9.48;3.10;;;20.20;99.90;;;;;;5007644;28;20728;-64
2022/06/11 09:43:31;;;;;;;13.48;2.88;;;20.20;99.90;;;;;;5007838;28;21341;-64
2022/06/11 09:46:08;;;;;;;8.93;3.33;;;20.10;99.90;;;;;;4981639;28;20209;-64
2022/06/11 09:48:47;;;;;;;11.98;2.95;;;20.20;99.90;;;;;;5005960;28;20228;-64
2022/06/11 09:51:22;;;;;;;9.48;3.28;;;20.30;99.90;;;;;;4987837;28;20212;-64
2022/06/11 09:54:06;;;;;;;9.88;2.58;;;20.30;99.90;;;;;;5003547;28;21886;-64
2022/06/11 09:56:40;;;;;;;12.35;3.38;;;20.30;99.90;;;;;;5019809;28;20205;-64
2022/06/11 09:59:23;;;;;;;14.48;3.55;;;20.40;99.90;;;;;;5005842;28;20222;-64
2022/06/11 10:01:55;;;;;;;14.32;2.92;;;20.40;99.90;;;;;;4984689;28;20222;-64
2022/06/11 10:04:27;;;;;;;7.07;2.17;;;20.40;99.90;;;;;;5016534;28;20194;-64
2022/06/11 10:06:56;;;;;;;12.93;3.30;;;20.20;99.90;;;;;;4993128;28;20201;-64
2022/06/11 10:09:27;;;;;;;8.10;2.92;;;20.30;99.90;;;;;;5009613;28;20218;-64
2022/06/11 10:11:57;;;;;;;10.43;2.85;;;20.60;99.90;;;;;;5011429;28;21037;-64
2022/06/11 10:14:34;;;;;;;8.55;2.63;;;20.60;99.90;;;;;;5012655;28;20229;-65
2022/06/11 10:17:09;;;;;;;9.88;2.92;;;20.80;99.90;;;;;;4973552;28;20253;-64
2022/06/11 10:19:43;;;;;;;12.20;3.13;;;20.90;99.90;;;;;;4975015;28;21587;-64
2022/06/11 10:22:16;;;;;;;8.43;2.78;;;20.90;99.90;;;;;;4947705;28;20234;-64
2022/06/11 10:24:54;;;;;;;12.13;2.75;;;21.00;99.90;;;;;;4997440;28;20648;-64
2022/06/11 10:27:21;;;;;;;11.32;3.00;;;21.10;99.90;;;;;;4994309;28;20218;-64
2022/06/11 10:29:51;;;;;;;17.17;2.97;;;21.20;99.90;;;;;;4999338;28;20432;-64
2022/06/11 10:32:23;;;;;;;8.23;2.20;;;20.90;99.90;;;;;;4980782;28;20229;-65
2022/06/11 10:34:57;;;;;;;10.73;2.72;;;20.60;99.90;;;;;;4979216;28;20231;-65
2022/06/11 10:37:30;;;;;;;11.65;3.10;;;20.80;99.90;;;;;;4954438;28;20249;-64
2022/06/11 10:40:09;;;;;;;13.45;2.78;;;20.70;99.90;;;;;;4985641;28;20236;-64
2022/06/11 10:42:40;;;;;;;10.27;3.33;;;20.70;99.90;;;;;;4997043;28;20218;-65
2022/06/11 10:45:13;;;;;;;6.43;2.45;;;20.70;99.90;;;;;;4989756;28;20319;-64
2022/06/11 10:47:44;;;;;;;10.90;2.92;;;20.80;99.90;;;;;;4960773;28;20242;-64
2022/06/11 10:50:21;;;;;;;7.47;2.92;;;20.80;99.90;;;;;;4975625;28;20223;-64
2022/06/11 10:52:54;;;;;;;6.80;2.17;;;21.10;99.90;;;;;;4957969;28;20225;-65
2022/06/11 10:55:30;;;;;;;9.00;2.58;;;20.90;99.90;;;;;;4993538;28;20229;-64
2022/06/11 10:58:01;;;;;;;10.63;2.45;;;21.10;99.90;;;;;;4993577;28;20229;-65
2022/06/11 11:00:34;;;;;;;7.47;2.65;;;21.10;99.90;;;;;;4984685;28;20222;-65
2022/06/11 11:03:05;;;;;;;9.13;2.00;;;21.00;99.90;;;;;;4979147;28;20349;-64
2022/06/11 11:05:46;;;;;;;9.50;2.80;;;20.90;99.90;;;;;;4969864;28;20766;-64
2022/06/11 11:08:13;;;;;;;12.52;2.88;;;21.20;99.90;;;;;;4961285;28;20321;-64
2022/06/11 11:10:47;;;;;;;12.45;2.70;;;21.20;99.90;;;;;;4974916;28;20211;-64
2022/06/11 11:13:25;;;;;;;9.10;2.83;;;21.10;99.90;;;;;;5000278;28;20218;-64
2022/06/11 11:16:02;;;;;;;10.68;2.38;;;21.20;99.90;;;;;;4997324;28;20241;-64
2022/06/11 11:18:36;;;;;;;11.88;2.97;;;21.10;99.90;;;;;;4986123;28;20588;-64
2022/06/11 11:21:05;;;;;;;10.90;2.72;;;21.10;99.90;;;;;;4983582;28;20226;-65
2022/06/11 11:23:38;;;;;;;12.80;2.70;;;21.00;99.90;;;;;;4962893;28;21000;-64
2022/06/11 11:26:12;;;;;;;8.45;2.40;;;21.00;99.90;;;;;;4976169;28;20275;-64
2022/06/11 11:28:46;;;;;;;6.85;2.42;;;21.00;99.90;;;;;;4992456;28;20225;-64
2022/06/11 11:31:20;;;;;;;10.38;2.38;;;21.10;99.90;;;;;;5004091;28;20202;-64
2022/06/11 11:34:00;;;;;;;10.13;2.20;;;21.20;99.90;;;;;;5006681;28;20214;-65
2022/06/11 11:36:29;;;;;;;10.13;2.60;;;21.30;99.90;;;;;;4983203;28;20220;-65
2022/06/11 11:39:15;;;;;;;8.27;2.50;;;21.40;99.90;;;;;;5004881;28;20198;-64
2022/06/11 11:42:00;;;;;;;8.63;2.22;;;21.20;99.90;;;;;;5009618;28;20194;-65
2022/06/11 11:44:27;;;;;;;11.23;2.45;;;21.50;99.90;;;;;;4996738;28;20785;-64
2022/06/11 11:46:58;;;;;;;8.93;2.25;;;21.50;99.90;;;;;;5012698;28;20206;-64
2022/06/11 11:49:28;;;;;;;12.25;2.90;;;21.50;99.90;;;;;;5005941;28;20214;-64
2022/06/11 11:52:05;;;;;;;6.28;2.28;;;21.50;99.90;;;;;;4984276;28;20229;-64
2022/06/11 11:54:33;;;;;;;7.72;2.25;;;20.80;99.90;;;;;;4980519;28;20739;-64
2022/06/11 11:57:04;;;;;;;9.60;2.53;;;21.70;99.90;;;;;;4984850;28;20224;-64
2022/06/11 11:59:36;;;;;;;5.57;1.95;;;21.80;99.90;;;;;;4991619;28;20210;-65
2022/06/11 12:02:14;;;;;;;12.02;2.65;;;21.80;99.90;;;;;;5004538;28;20205;-64
2022/06/11 12:04:53;;;;;;;12.13;2.60;;;21.80;99.90;;;;;;4991673;28;20222;-64
2022/06/11 12:07:30;;;;;;;10.73;2.72;;;21.80;99.90;;;;;;4985733;28;20233;-64
2022/06/11 12:10:03;;;;;;;10.98;2.70;;;21.70;99.90;;;;;;4981773;28;20228;-64
2022/06/11 12:12:34;;;;;;;7.88;2.42;;;21.60;99.90;;;;;;4981734;28;20233;-65
2022/06/11 12:15:03;;;;;;;12.63;2.80;;;21.50;99.90;;;;;;4991958;28;20599;-63
2022/06/11 12:17:40;;;;;;;13.77;3.17;;;21.20;99.90;;;;;;4979716;28;20730;-63
2022/06/11 12:20:16;;;;;;;10.32;2.47;;;21.30;99.90;;;;;;4991379;28;20214;-64
2022/06/11 12:22:49;;;;;;;7.53;2.22;;;21.60;99.90;;;;;;4964219;28;20229;-65
2022/06/11 12:25:24;;;;;;;8.60;2.22;;;21.60;99.90;;;;;;5000710;28;20229;-64
2022/06/11 12:27:52;;;;;;;15.18;2.70;;;21.50;99.90;;;;;;4982698;28;20671;-64
2022/06/11 12:30:23;;;;;;;10.25;3.10;;;21.50;99.90;;;;;;5004760;28;20225;-64
2022/06/11 12:32:51;;;;;;;11.98;2.33;;;21.60;99.90;;;;;;4972749;28;20202;-64
2022/06/11 12:35:25;;;;;;;6.90;2.30;;;21.50;99.90;;;;;;5009527;28;20226;-64
2022/06/11 12:38:03;;;;;;;11.98;2.67;;;21.60;99.90;;;;;;4974309;28;20221;-64
2022/06/11 12:40:41;;;;;;;9.80;2.50;;;21.50;99.90;;;;;;4991774;28;20301;-65
2022/06/11 12:43:20;;;;;;;12.50;2.83;;;21.50;99.90;;;;;;4986985;28;20214;-63
2022/06/11 12:45:53;;;;;;;8.85;2.38;;;21.70;99.90;;;;;;4974285;28;20316;-65
2022/06/11 12:48:40;;;;;;;8.65;2.08;;;22.00;99.90;;;;;;4968396;28;20222;-64
2022/06/11 12:51:14;;;;;;;7.57;2.25;;;21.80;99.90;;;;;;4970321;28;20261;-64
2022/06/11 12:53:55;;;;;;;13.48;2.33;;;21.80;99.90;;;;;;4956654;28;20230;-64
2022/06/11 12:56:56;;;;;;;11.50;3.22;;;21.70;99.90;;;;;;4995520;28;20714;-63
2022/06/11 12:59:39;;;;;;;5.78;2.47;;;21.90;99.90;;;;;;4981735;28;20225;-64
2022/06/11 13:02:26;;;;;;;7.40;2.35;;;21.80;99.90;;;;;;4983550;28;20926;-64
2022/06/11 13:05:21;;;;;;;12.30;2.97;;;21.80;99.90;;;;;;4986984;28;20230;-64
2022/06/11 13:07:58;;;;;;;11.50;2.58;;;22.00;99.90;;;;;;4980456;28;21079;-64
2022/06/11 13:10:43;;;;;;;5.95;2.00;;;22.00;99.90;;;;;;4971746;28;20230;-64